sensor_id;sensor_type;location;lat;lon;timestamp;P1;durP1;ratioP1;P2;durP2;ratioP2
36221;SDS011;22266;52.340;4.962;2023-01-06T00:00:25;8.50;;;7.00;;
36221;SDS011;22266;52.340;4.962;2023-01-06T00:02:52;6.75;;;5.75;;
36221;SDS011;22266;52.340;4.962;2023-01-06T00:05:19;9.75;;;6.00;;
36221;SDS011;22266;52.340;4.962;2023-01-06T00:07:48;11.50;;;7.50;;
36221;SDS011;22266;52.340;4.962;2023-01-06T00:10:15;6.50;;;5.00;;
36221;SDS011;22266;52.340;4.962;2023-01-06T00:12:48;4.50;;;4.50;;
36221;SDS011;22266;52.340;4.962;2023-01-06T00:15:16;5.00;;;5.00;;
36221;SDS011;22266;52.340;4.962;2023-01-06T00:17:43;4.75;;;4.75;;
36221;SDS011;22266;52.340;4.962;2023-01-06T00:20:11;5.00;;;2.00;;
36221;SDS011;22266;52.340;4.962;2023-01-06T00:22:39;6.50;;;4.00;;
36221;SDS011;22266;52.340;4.962;2023-01-06T00:25:06;3.50;;;2.50;;
36221;SDS011;22266;52.340;4.962;2023-01-06T00:27:35;4.25;;;3.50;;
36221;SDS011;22266;52.340;4.962;2023-01-06T00:30:02;6.00;;;2.00;;
36221;SDS011;22266;52.340;4.962;2023-01-06T00:32:30;1.75;;;1.75;;
36221;SDS011;22266;52.340;4.962;2023-01-06T00:34:56;1.50;;;1.50;;
36221;SDS011;22266;52.340;4.962;2023-01-06T00:37:24;3.25;;;1.75;;
36221;SDS011;22266;52.340;4.962;2023-01-06T00:39:51;4.75;;;2.00;;
36221;SDS011;22266;52.340;4.962;2023-01-06T00:42:17;1.50;;;1.50;;
36221;SDS011;22266;52.340;4.962;2023-01-06T00:44:44;2.25;;;2.25;;
36221;SDS011;22266;52.340;4.962;2023-01-06T00:47:10;2.50;;;2.00;;
36221;SDS011;22266;52.340;4.962;2023-01-06T00:49:37;4.00;;;4.00;;
36221;SDS011;22266;52.340;4.962;2023-01-06T00:52:04;1.00;;;1.00;;
36221;SDS011;22266;52.340;4.962;2023-01-06T00:54:31;4.00;;;3.00;;
36221;SDS011;22266;52.340;4.962;2023-01-06T00:56:57;2.00;;;2.00;;
36221;SDS011;22266;52.340;4.962;2023-01-06T00:59:24;2.50;;;2.50;;
36221;SDS011;22266;52.340;4.962;2023-01-06T01:01:53;2.50;;;2.00;;
36221;SDS011;22266;52.340;4.962;2023-01-06T01:04:22;3.50;;;3.25;;
36221;SDS011;22266;52.340;4.962;2023-01-06T01:06:50;5.50;;;4.50;;
36221;SDS011;22266;52.340;4.962;2023-01-06T01:09:19;4.00;;;4.00;;
36221;SDS011;22266;52.340;4.962;2023-01-06T01:11:52;5.00;;;5.00;;
36221;SDS011;22266;52.340;4.962;2023-01-06T01:14:39;6.00;;;4.50;;
36221;SDS011;22266;52.340;4.962;2023-01-06T01:17:16;6.00;;;5.00;;
36221;SDS011;22266;52.340;4.962;2023-01-06T01:19:48;5.00;;;5.00;;
36221;SDS011;22266;52.340;4.962;2023-01-06T01:22:16;6.25;;;6.25;;
36221;SDS011;22266;52.340;4.962;2023-01-06T01:24:43;4.25;;;4.25;;
36221;SDS011;22266;52.340;4.962;2023-01-06T01:27:09;6.75;;;5.75;;
36221;SDS011;22266;52.340;4.962;2023-01-06T01:29:36;7.50;;;7.50;;
36221;SDS011;22266;52.340;4.962;2023-01-06T01:32:02;8.50;;;7.50;;
36221;SDS011;22266;52.340;4.962;2023-01-06T01:34:29;8.50;;;7.00;;
36221;SDS011;22266;52.340;4.962;2023-01-06T01:36:56;9.00;;;8.00;;
36221;SDS011;22266;52.340;4.962;2023-01-06T01:39:24;9.75;;;6.00;;
36221;SDS011;22266;52.340;4.962;2023-01-06T01:41:54;7.75;;;7.75;;
36221;SDS011;22266;52.340;4.962;2023-01-06T01:47:36;8.25;;;7.00;;
36221;SDS011;22266;52.340;4.962;2023-01-06T01:50:21;8.75;;;6.75;;
36221;SDS011;22266;52.340;4.962;2023-01-06T01:52:53;5.75;;;5.75;;
36221;SDS011;22266;52.340;4.962;2023-01-06T01:55:24;7.50;;;7.50;;
36221;SDS011;22266;52.340;4.962;2023-01-06T02:00:22;6.50;;;6.50;;
36221;SDS011;22266;52.340;4.962;2023-01-06T02:02:48;13.75;;;10.00;;
36221;SDS011;22266;52.340;4.962;2023-01-06T02:05:16;13.25;;;10.25;;
36221;SDS011;22266;52.340;4.962;2023-01-06T02:07:47;9.50;;;9.50;;
36221;SDS011;22266;52.340;4.962;2023-01-06T02:10:16;6.75;;;6.00;;
36221;SDS011;22266;52.340;4.962;2023-01-06T02:12:45;9.50;;;8.75;;
36221;SDS011;22266;52.340;4.962;2023-01-06T02:17:52;7.50;;;7.50;;
36221;SDS011;22266;52.340;4.962;2023-01-06T02:20:40;10.25;;;8.50;;
36221;SDS011;22266;52.340;4.962;2023-01-06T02:23:48;8.50;;;7.75;;
36221;SDS011;22266;52.340;4.962;2023-01-06T02:29:29;11.00;;;11.00;;
36221;SDS011;22266;52.340;4.962;2023-01-06T02:37:47;12.75;;;8.75;;
36221;SDS011;22266;52.340;4.962;2023-01-06T02:40:36;8.50;;;7.25;;
36221;SDS011;22266;52.340;4.962;2023-01-06T02:43:15;6.50;;;6.50;;
36221;SDS011;22266;52.340;4.962;2023-01-06T02:46:01;5.00;;;5.00;;
36221;SDS011;22266;52.340;4.962;2023-01-06T02:48:42;5.00;;;5.00;;
36221;SDS011;22266;52.340;4.962;2023-01-06T02:57:12;5.25;;;5.25;;
36221;SDS011;22266;52.340;4.962;2023-01-06T02:59:45;3.00;;;3.00;;
36221;SDS011;22266;52.340;4.962;2023-01-06T03:02:20;4.00;;;4.00;;
36221;SDS011;22266;52.340;4.962;2023-01-06T03:04:49;5.00;;;4.50;;
36221;SDS011;22266;52.340;4.962;2023-01-06T03:07:19;7.25;;;4.75;;
36221;SDS011;22266;52.340;4.962;2023-01-06T03:09:48;2.75;;;1.25;;
36221;SDS011;22266;52.340;4.962;2023-01-06T03:13:21;3.75;;;2.00;;
36221;SDS011;22266;52.340;4.962;2023-01-06T03:15:37;3.50;;;3.50;;
36221;SDS011;22266;52.340;4.962;2023-01-06T03:18:04;1.50;;;1.50;;
36221;SDS011;22266;52.340;4.962;2023-01-06T03:20:32;4.50;;;4.50;;
36221;SDS011;22266;52.340;4.962;2023-01-06T03:22:59;1.75;;;1.75;;
36221;SDS011;22266;52.340;4.962;2023-01-06T03:25:26;2.00;;;2.00;;
36221;SDS011;22266;52.340;4.962;2023-01-06T03:27:54;5.25;;;3.25;;
36221;SDS011;22266;52.340;4.962;2023-01-06T03:30:21;2.00;;;2.00;;
36221;SDS011;22266;52.340;4.962;2023-01-06T03:36:07;2.50;;;1.75;;
36221;SDS011;22266;52.340;4.962;2023-01-06T03:38:50;1.50;;;1.50;;
36221;SDS011;22266;52.340;4.962;2023-01-06T03:41:39;2.00;;;2.00;;
36221;SDS011;22266;52.340;4.962;2023-01-06T03:47:14;1.00;;;1.00;;
36221;SDS011;22266;52.340;4.962;2023-01-06T03:49:53;4.50;;;1.00;;
36221;SDS011;22266;52.340;4.962;2023-01-06T03:52:29;2.00;;;1.25;;
36221;SDS011;22266;52.340;4.962;2023-01-06T03:55:04;1.00;;;1.00;;
36221;SDS011;22266;52.340;4.962;2023-01-06T03:57:36;2.75;;;1.75;;
36221;SDS011;22266;52.340;4.962;2023-01-06T04:00:12;1.00;;;1.00;;
36221;SDS011;22266;52.340;4.962;2023-01-06T04:02:51;0.50;;;0.50;;
36221;SDS011;22266;52.340;4.962;2023-01-06T04:05:22;1.00;;;1.00;;
36221;SDS011;22266;52.340;4.962;2023-01-06T04:07:51;1.50;;;1.00;;
36221;SDS011;22266;52.340;4.962;2023-01-06T04:10:20;1.00;;;1.00;;
36221;SDS011;22266;52.340;4.962;2023-01-06T04:12:50;1.00;;;1.00;;
36221;SDS011;22266;52.340;4.962;2023-01-06T04:15:23;1.75;;;1.75;;
36221;SDS011;22266;52.340;4.962;2023-01-06T04:17:53;0.25;;;0.25;;
36221;SDS011;22266;52.340;4.962;2023-01-06T04:20:21;2.00;;;1.75;;
36221;SDS011;22266;52.340;4.962;2023-01-06T04:22:58;1.00;;;1.00;;
36221;SDS011;22266;52.340;4.962;2023-01-06T04:25:31;1.00;;;1.00;;
36221;SDS011;22266;52.340;4.962;2023-01-06T04:28:04;1.00;;;1.00;;
36221;SDS011;22266;52.340;4.962;2023-01-06T04:30:31;2.00;;;1.50;;
36221;SDS011;22266;52.340;4.962;2023-01-06T04:32:57;2.00;;;2.00;;
36221;SDS011;22266;52.340;4.962;2023-01-06T04:35:24;1.25;;;1.00;;
36221;SDS011;22266;52.340;4.962;2023-01-06T04:37:50;2.00;;;2.00;;
36221;SDS011;22266;52.340;4.962;2023-01-06T04:40:18;2.50;;;2.50;;
36221;SDS011;22266;52.340;4.962;2023-01-06T04:42:44;2.00;;;2.00;;
36221;SDS011;22266;52.340;4.962;2023-01-06T04:45:29;3.00;;;2.00;;
36221;SDS011;22266;52.340;4.962;2023-01-06T04:47:55;2.00;;;2.00;;
36221;SDS011;22266;52.340;4.962;2023-01-06T04:50:22;4.50;;;4.50;;
36221;SDS011;22266;52.340;4.962;2023-01-06T04:52:48;2.50;;;2.50;;
36221;SDS011;22266;52.340;4.962;2023-01-06T04:55:15;4.00;;;3.50;;
36221;SDS011;22266;52.340;4.962;2023-01-06T04:57:41;4.00;;;3.50;;
36221;SDS011;22266;52.340;4.962;2023-01-06T05:00:08;4.00;;;4.00;;
36221;SDS011;22266;52.340;4.962;2023-01-06T05:02:35;2.00;;;2.00;;
36221;SDS011;22266;52.340;4.962;2023-01-06T05:05:01;4.75;;;3.00;;
36221;SDS011;22266;52.340;4.962;2023-01-06T05:07:28;4.25;;;3.50;;
36221;SDS011;22266;52.340;4.962;2023-01-06T05:09:55;3.00;;;3.00;;
36221;SDS011;22266;52.340;4.962;2023-01-06T05:12:21;4.00;;;3.00;;
36221;SDS011;22266;52.340;4.962;2023-01-06T05:14:48;3.75;;;2.00;;
36221;SDS011;22266;52.340;4.962;2023-01-06T05:17:14;1.00;;;1.00;;
36221;SDS011;22266;52.340;4.962;2023-01-06T05:19:40;2.00;;;2.00;;
36221;SDS011;22266;52.340;4.962;2023-01-06T05:22:09;2.75;;;2.75;;
36221;SDS011;22266;52.340;4.962;2023-01-06T05:24:36;2.00;;;2.00;;
36221;SDS011;22266;52.340;4.962;2023-01-06T05:27:03;3.00;;;1.50;;
36221;SDS011;22266;52.340;4.962;2023-01-06T05:29:29;2.00;;;1.75;;
36221;SDS011;22266;52.340;4.962;2023-01-06T05:31:56;1.25;;;1.25;;
36221;SDS011;22266;52.340;4.962;2023-01-06T05:34:23;3.00;;;3.00;;
36221;SDS011;22266;52.340;4.962;2023-01-06T05:36:50;2.50;;;2.00;;
36221;SDS011;22266;52.340;4.962;2023-01-06T05:39:16;4.50;;;4.00;;
36221;SDS011;22266;52.340;4.962;2023-01-06T05:41:43;3.00;;;3.00;;
36221;SDS011;22266;52.340;4.962;2023-01-06T05:44:09;2.75;;;2.75;;
36221;SDS011;22266;52.340;4.962;2023-01-06T05:46:36;7.75;;;5.75;;
36221;SDS011;22266;52.340;4.962;2023-01-06T05:49:02;5.00;;;3.00;;
36221;SDS011;22266;52.340;4.962;2023-01-06T05:51:29;5.50;;;5.00;;
36221;SDS011;22266;52.340;4.962;2023-01-06T05:53:55;5.00;;;5.00;;
36221;SDS011;22266;52.340;4.962;2023-01-06T05:56:22;4.75;;;3.50;;
36221;SDS011;22266;52.340;4.962;2023-01-06T05:58:50;4.00;;;4.00;;
36221;SDS011;22266;52.340;4.962;2023-01-06T06:01:21;5.25;;;5.25;;
36221;SDS011;22266;52.340;4.962;2023-01-06T06:03:49;5.00;;;5.00;;
36221;SDS011;22266;52.340;4.962;2023-01-06T06:06:17;4.00;;;4.00;;
36221;SDS011;22266;52.340;4.962;2023-01-06T06:08:44;5.25;;;4.50;;
36221;SDS011;22266;52.340;4.962;2023-01-06T06:11:12;5.75;;;5.75;;
36221;SDS011;22266;52.340;4.962;2023-01-06T06:13:46;7.25;;;6.50;;
36221;SDS011;22266;52.340;4.962;2023-01-06T06:16:17;5.75;;;5.00;;
36221;SDS011;22266;52.340;4.962;2023-01-06T06:18:50;8.50;;;8.50;;
36221;SDS011;22266;52.340;4.962;2023-01-06T06:21:20;5.00;;;5.00;;
36221;SDS011;22266;52.340;4.962;2023-01-06T06:23:48;6.00;;;5.00;;
36221;SDS011;22266;52.340;4.962;2023-01-06T06:26:17;6.50;;;6.50;;
36221;SDS011;22266;52.340;4.962;2023-01-06T06:28:43;5.50;;;5.50;;
36221;SDS011;22266;52.340;4.962;2023-01-06T06:31:12;3.75;;;3.50;;
36221;SDS011;22266;52.340;4.962;2023-01-06T06:33:40;5.75;;;5.75;;
36221;SDS011;22266;52.340;4.962;2023-01-06T06:36:07;5.25;;;5.25;;
36221;SDS011;22266;52.340;4.962;2023-01-06T06:38:37;5.25;;;4.50;;
36221;SDS011;22266;52.340;4.962;2023-01-06T06:41:04;6.00;;;6.00;;
36221;SDS011;22266;52.340;4.962;2023-01-06T06:43:31;6.00;;;6.00;;
36221;SDS011;22266;52.340;4.962;2023-01-06T06:45:58;5.00;;;4.75;;
36221;SDS011;22266;52.340;4.962;2023-01-06T06:48:24;5.00;;;4.00;;
36221;SDS011;22266;52.340;4.962;2023-01-06T06:50:57;6.25;;;3.25;;
36221;SDS011;22266;52.340;4.962;2023-01-06T06:53:28;4.00;;;4.00;;
36221;SDS011;22266;52.340;4.962;2023-01-06T06:55:55;2.75;;;2.75;;
36221;SDS011;22266;52.340;4.962;2023-01-06T06:58:22;4.50;;;4.50;;
36221;SDS011;22266;52.340;4.962;2023-01-06T07:00:49;3.00;;;3.00;;
36221;SDS011;22266;52.340;4.962;2023-01-06T07:03:16;2.00;;;2.00;;
36221;SDS011;22266;52.340;4.962;2023-01-06T07:05:43;0.75;;;0.50;;
36221;SDS011;22266;52.340;4.962;2023-01-06T07:08:11;1.00;;;1.00;;
36221;SDS011;22266;52.340;4.962;2023-01-06T07:10:38;1.75;;;1.00;;
36221;SDS011;22266;52.340;4.962;2023-01-06T07:13:04;2.00;;;2.00;;
36221;SDS011;22266;52.340;4.962;2023-01-06T07:15:31;1.50;;;1.00;;
36221;SDS011;22266;52.340;4.962;2023-01-06T07:17:59;2.00;;;0.50;;
36221;SDS011;22266;52.340;4.962;2023-01-06T07:20:29;1.00;;;1.00;;
36221;SDS011;22266;52.340;4.962;2023-01-06T07:23:00;2.00;;;1.75;;
36221;SDS011;22266;52.340;4.962;2023-01-06T07:25:27;3.00;;;3.00;;
36221;SDS011;22266;52.340;4.962;2023-01-06T07:27:55;1.75;;;1.00;;
36221;SDS011;22266;52.340;4.962;2023-01-06T07:30:22;0.75;;;0.75;;
36221;SDS011;22266;52.340;4.962;2023-01-06T07:32:50;2.50;;;1.50;;
36221;SDS011;22266;52.340;4.962;2023-01-06T07:35:17;1.00;;;1.00;;
36221;SDS011;22266;52.340;4.962;2023-01-06T07:37:43;0.75;;;0.75;;
36221;SDS011;22266;52.340;4.962;2023-01-06T07:40:10;1.50;;;0.25;;
36221;SDS011;22266;52.340;4.962;2023-01-06T07:42:37;1.75;;;1.75;;
36221;SDS011;22266;52.340;4.962;2023-01-06T07:45:03;1.50;;;0.25;;
36221;SDS011;22266;52.340;4.962;2023-01-06T07:47:30;0.75;;;0.75;;
36221;SDS011;22266;52.340;4.962;2023-01-06T07:49:56;5.25;;;2.25;;
36221;SDS011;22266;52.340;4.962;2023-01-06T07:52:23;1.50;;;1.50;;
36221;SDS011;22266;52.340;4.962;2023-01-06T07:54:49;0.00;;;0.00;;
36221;SDS011;22266;52.340;4.962;2023-01-06T07:57:16;0.50;;;0.50;;
36221;SDS011;22266;52.340;4.962;2023-01-06T07:59:43;2.00;;;1.00;;
36221;SDS011;22266;52.340;4.962;2023-01-06T08:02:09;1.00;;;1.00;;
36221;SDS011;22266;52.340;4.962;2023-01-06T08:04:36;2.00;;;2.00;;
36221;SDS011;22266;52.340;4.962;2023-01-06T08:07:03;0.25;;;0.00;;
36221;SDS011;22266;52.340;4.962;2023-01-06T08:09:29;1.00;;;0.00;;
36221;SDS011;22266;52.340;4.962;2023-01-06T08:11:56;1.00;;;1.00;;
36221;SDS011;22266;52.340;4.962;2023-01-06T08:14:24;1.50;;;1.00;;
36221;SDS011;22266;52.340;4.962;2023-01-06T08:16:51;0.25;;;0.25;;
36221;SDS011;22266;52.340;4.962;2023-01-06T08:19:17;1.00;;;1.00;;
36221;SDS011;22266;52.340;4.962;2023-01-06T08:21:44;1.00;;;1.00;;
36221;SDS011;22266;52.340;4.962;2023-01-06T08:24:10;0.00;;;0.00;;
36221;SDS011;22266;52.340;4.962;2023-01-06T08:26:37;0.25;;;0.25;;
36221;SDS011;22266;52.340;4.962;2023-01-06T08:29:03;0.00;;;0.00;;
36221;SDS011;22266;52.340;4.962;2023-01-06T08:31:29;0.00;;;0.00;;
36221;SDS011;22266;52.340;4.962;2023-01-06T08:33:56;1.00;;;0.50;;
36221;SDS011;22266;52.340;4.962;2023-01-06T08:36:22;0.75;;;0.00;;
36221;SDS011;22266;52.340;4.962;2023-01-06T08:38:50;1.00;;;1.00;;
36221;SDS011;22266;52.340;4.962;2023-01-06T08:41:17;0.00;;;0.00;;
36221;SDS011;22266;52.340;4.962;2023-01-06T08:43:44;1.25;;;0.75;;
36221;SDS011;22266;52.340;4.962;2023-01-06T08:46:13;0.00;;;0.00;;
36221;SDS011;22266;52.340;4.962;2023-01-06T08:48:42;0.00;;;0.00;;
36221;SDS011;22266;52.340;4.962;2023-01-06T08:51:11;0.00;;;0.00;;
36221;SDS011;22266;52.340;4.962;2023-01-06T08:53:39;1.75;;;0.00;;
36221;SDS011;22266;52.340;4.962;2023-01-06T08:56:10;0.00;;;0.00;;
36221;SDS011;22266;52.340;4.962;2023-01-06T08:58:38;0.00;;;0.00;;
36221;SDS011;22266;52.340;4.962;2023-01-06T09:01:05;0.25;;;0.25;;
36221;SDS011;22266;52.340;4.962;2023-01-06T09:03:31;0.00;;;0.00;;
36221;SDS011;22266;52.340;4.962;2023-01-06T09:05:58;0.50;;;0.50;;
36221;SDS011;22266;52.340;4.962;2023-01-06T09:08:24;0.00;;;0.00;;
36221;SDS011;22266;52.340;4.962;2023-01-06T09:10:51;1.00;;;1.00;;
36221;SDS011;22266;52.340;4.962;2023-01-06T09:13:17;0.00;;;0.00;;
36221;SDS011;22266;52.340;4.962;2023-01-06T09:15:44;1.00;;;0.00;;
36221;SDS011;22266;52.340;4.962;2023-01-06T09:18:14;0.00;;;0.00;;
36221;SDS011;22266;52.340;4.962;2023-01-06T09:20:40;0.00;;;0.00;;
36221;SDS011;22266;52.340;4.962;2023-01-06T09:23:07;1.00;;;0.00;;
36221;SDS011;22266;52.340;4.962;2023-01-06T09:25:34;1.00;;;1.00;;
36221;SDS011;22266;52.340;4.962;2023-01-06T09:28:00;0.75;;;0.75;;
36221;SDS011;22266;52.340;4.962;2023-01-06T09:30:26;0.00;;;0.00;;
36221;SDS011;22266;52.340;4.962;2023-01-06T09:32:53;2.00;;;1.00;;
36221;SDS011;22266;52.340;4.962;2023-01-06T09:35:19;0.00;;;0.00;;
36221;SDS011;22266;52.340;4.962;2023-01-06T09:37:46;0.00;;;0.00;;
36221;SDS011;22266;52.340;4.962;2023-01-06T09:40:19;2.00;;;1.00;;
36221;SDS011;22266;52.340;4.962;2023-01-06T09:45:30;2.00;;;1.00;;
36221;SDS011;22266;52.340;4.962;2023-01-06T09:48:03;0.00;;;0.00;;
36221;SDS011;22266;52.340;4.962;2023-01-06T09:50:39;0.00;;;0.00;;
36221;SDS011;22266;52.340;4.962;2023-01-06T09:53:16;0.00;;;0.00;;
36221;SDS011;22266;52.340;4.962;2023-01-06T09:55:51;1.00;;;0.00;;
36221;SDS011;22266;52.340;4.962;2023-01-06T09:58:24;0.50;;;0.50;;
36221;SDS011;22266;52.340;4.962;2023-01-06T10:00:56;0.00;;;0.00;;
36221;SDS011;22266;52.340;4.962;2023-01-06T10:03:29;1.25;;;1.00;;
36221;SDS011;22266;52.340;4.962;2023-01-06T10:15:13;0.00;;;0.00;;
36221;SDS011;22266;52.340;4.962;2023-01-06T10:18:03;0.75;;;0.00;;
36221;SDS011;22266;52.340;4.962;2023-01-06T10:20:53;1.25;;;0.00;;
36221;SDS011;22266;52.340;4.962;2023-01-06T10:23:43;0.25;;;0.00;;
36221;SDS011;22266;52.340;4.962;2023-01-06T10:26:21;0.00;;;0.00;;
36221;SDS011;22266;52.340;4.962;2023-01-06T10:28:55;1.00;;;0.00;;
36221;SDS011;22266;52.340;4.962;2023-01-06T10:31:29;0.00;;;0.00;;
36221;SDS011;22266;52.340;4.962;2023-01-06T10:34:00;2.50;;;0.00;;
36221;SDS011;22266;52.340;4.962;2023-01-06T10:36:32;0.00;;;0.00;;
36221;SDS011;22266;52.340;4.962;2023-01-06T10:39:05;0.50;;;0.00;;
36221;SDS011;22266;52.340;4.962;2023-01-06T10:41:43;0.00;;;0.00;;
36221;SDS011;22266;52.340;4.962;2023-01-06T10:44:21;0.00;;;0.00;;
36221;SDS011;22266;52.340;4.962;2023-01-06T10:46:48;0.00;;;0.00;;
36221;SDS011;22266;52.340;4.962;2023-01-06T10:49:18;0.00;;;0.00;;
36221;SDS011;22266;52.340;4.962;2023-01-06T10:51:48;0.25;;;0.25;;
36221;SDS011;22266;52.340;4.962;2023-01-06T10:54:18;0.00;;;0.00;;
36221;SDS011;22266;52.340;4.962;2023-01-06T10:56:57;2.50;;;0.50;;
36221;SDS011;22266;52.340;4.962;2023-01-06T10:59:28;0.25;;;0.00;;
36221;SDS011;22266;52.340;4.962;2023-01-06T11:01:55;0.00;;;0.00;;
36221;SDS011;22266;52.340;4.962;2023-01-06T11:04:24;2.00;;;0.00;;
36221;SDS011;22266;52.340;4.962;2023-01-06T11:06:58;0.00;;;0.00;;
36221;SDS011;22266;52.340;4.962;2023-01-06T11:09:36;0.00;;;0.00;;
36221;SDS011;22266;52.340;4.962;2023-01-06T11:12:08;0.00;;;0.00;;
36221;SDS011;22266;52.340;4.962;2023-01-06T11:14:41;0.00;;;0.00;;
36221;SDS011;22266;52.340;4.962;2023-01-06T11:17:08;0.00;;;0.00;;
36221;SDS011;22266;52.340;4.962;2023-01-06T11:19:41;2.00;;;0.00;;
36221;SDS011;22266;52.340;4.962;2023-01-06T11:25:00;0.00;;;0.00;;
36221;SDS011;22266;52.340;4.962;2023-01-06T11:27:27;1.00;;;0.00;;
36221;SDS011;22266;52.340;4.962;2023-01-06T11:29:53;0.00;;;0.00;;
36221;SDS011;22266;52.340;4.962;2023-01-06T11:32:26;1.00;;;0.00;;
36221;SDS011;22266;52.340;4.962;2023-01-06T11:34:56;0.25;;;0.00;;
36221;SDS011;22266;52.340;4.962;2023-01-06T11:37:29;0.00;;;0.00;;
36221;SDS011;22266;52.340;4.962;2023-01-06T11:39:58;0.00;;;0.00;;
36221;SDS011;22266;52.340;4.962;2023-01-06T11:42:36;1.00;;;0.00;;
36221;SDS011;22266;52.340;4.962;2023-01-06T11:45:04;0.75;;;0.00;;
36221;SDS011;22266;52.340;4.962;2023-01-06T11:47:31;0.00;;;0.00;;
36221;SDS011;22266;52.340;4.962;2023-01-06T11:49:59;1.00;;;0.00;;
36221;SDS011;22266;52.340;4.962;2023-01-06T11:52:28;0.75;;;0.00;;
36221;SDS011;22266;52.340;4.962;2023-01-06T11:54:58;0.00;;;0.00;;
36221;SDS011;22266;52.340;4.962;2023-01-06T11:57:39;0.00;;;0.00;;
36221;SDS011;22266;52.340;4.962;2023-01-06T12:00:18;0.00;;;0.00;;
36221;SDS011;22266;52.340;4.962;2023-01-06T12:05:44;0.00;;;0.00;;
36221;SDS011;22266;52.340;4.962;2023-01-06T12:08:17;0.00;;;0.00;;
36221;SDS011;22266;52.340;4.962;2023-01-06T12:10:47;1.00;;;0.00;;
36221;SDS011;22266;52.340;4.962;2023-01-06T12:13:19;2.00;;;1.00;;
36221;SDS011;22266;52.340;4.962;2023-01-06T12:15:46;0.00;;;0.00;;
36221;SDS011;22266;52.340;4.962;2023-01-06T12:18:25;0.00;;;0.00;;
36221;SDS011;22266;52.340;4.962;2023-01-06T12:20:55;0.50;;;0.00;;
36221;SDS011;22266;52.340;4.962;2023-01-06T12:23:26;0.50;;;0.00;;
36221;SDS011;22266;52.340;4.962;2023-01-06T12:25:57;0.00;;;0.00;;
36221;SDS011;22266;52.340;4.962;2023-01-06T12:28:31;0.00;;;0.00;;
36221;SDS011;22266;52.340;4.962;2023-01-06T12:31:15;0.50;;;0.00;;
36221;SDS011;22266;52.340;4.962;2023-01-06T12:36:34;1.00;;;0.00;;
36221;SDS011;22266;52.340;4.962;2023-01-06T12:39:15;0.00;;;0.00;;
36221;SDS011;22266;52.340;4.962;2023-01-06T12:41:52;0.00;;;0.00;;
36221;SDS011;22266;52.340;4.962;2023-01-06T12:47:23;0.00;;;0.00;;
36221;SDS011;22266;52.340;4.962;2023-01-06T12:49:59;0.00;;;0.00;;
36221;SDS011;22266;52.340;4.962;2023-01-06T12:52:31;0.25;;;0.25;;
36221;SDS011;22266;52.340;4.962;2023-01-06T12:55:01;0.00;;;0.00;;
36221;SDS011;22266;52.340;4.962;2023-01-06T12:57:43;0.25;;;0.25;;
36221;SDS011;22266;52.340;4.962;2023-01-06T13:00:20;0.00;;;0.00;;
36221;SDS011;22266;52.340;4.962;2023-01-06T13:02:53;0.00;;;0.00;;
36221;SDS011;22266;52.340;4.962;2023-01-06T13:22:39;0.50;;;0.00;;
36221;SDS011;22266;52.340;4.962;2023-01-06T13:33:38;1.00;;;0.00;;
36221;SDS011;22266;52.340;4.962;2023-01-06T13:39:14;1.00;;;1.00;;
36221;SDS011;22266;52.340;4.962;2023-01-06T13:41:44;0.00;;;0.00;;
36221;SDS011;22266;52.340;4.962;2023-01-06T13:44:15;0.00;;;0.00;;
36221;SDS011;22266;52.340;4.962;2023-01-06T13:46:46;1.25;;;0.25;;
36221;SDS011;22266;52.340;4.962;2023-01-06T13:49:15;0.00;;;0.00;;
36221;SDS011;22266;52.340;4.962;2023-01-06T13:51:42;0.75;;;0.75;;
36221;SDS011;22266;52.340;4.962;2023-01-06T14:05:03;0.75;;;0.00;;
36221;SDS011;22266;52.340;4.962;2023-01-06T14:13:21;0.00;;;0.00;;
36221;SDS011;22266;52.340;4.962;2023-01-06T14:15:55;0.00;;;0.00;;
36221;SDS011;22266;52.340;4.962;2023-01-06T14:18:28;0.00;;;0.00;;
36221;SDS011;22266;52.340;4.962;2023-01-06T14:21:14;0.00;;;0.00;;
36221;SDS011;22266;52.340;4.962;2023-01-06T14:23:54;0.00;;;0.00;;
36221;SDS011;22266;52.340;4.962;2023-01-06T14:32:09;0.00;;;0.00;;
36221;SDS011;22266;52.340;4.962;2023-01-06T14:34:56;1.00;;;0.00;;
36221;SDS011;22266;52.340;4.962;2023-01-06T14:37:28;0.50;;;0.50;;
36221;SDS011;22266;52.340;4.962;2023-01-06T14:40:03;0.00;;;0.00;;
36221;SDS011;22266;52.340;4.962;2023-01-06T14:42:32;0.00;;;0.00;;
36221;SDS011;22266;52.340;4.962;2023-01-06T14:45:06;0.50;;;0.00;;
36221;SDS011;22266;52.340;4.962;2023-01-06T14:47:46;0.00;;;0.00;;
36221;SDS011;22266;52.340;4.962;2023-01-06T14:50:23;0.50;;;0.50;;
36221;SDS011;22266;52.340;4.962;2023-01-06T14:55:52;0.00;;;0.00;;
36221;SDS011;22266;52.340;4.962;2023-01-06T15:01:02;1.00;;;0.00;;
36221;SDS011;22266;52.340;4.962;2023-01-06T15:03:30;0.75;;;0.75;;
36221;SDS011;22266;52.340;4.962;2023-01-06T15:08:46;1.00;;;1.00;;
36221;SDS011;22266;52.340;4.962;2023-01-06T15:11:26;0.00;;;0.00;;
36221;SDS011;22266;52.340;4.962;2023-01-06T15:13:55;0.00;;;0.00;;
36221;SDS011;22266;52.340;4.962;2023-01-06T15:16:40;0.00;;;0.00;;
36221;SDS011;22266;52.340;4.962;2023-01-06T15:19:08;0.00;;;0.00;;
36221;SDS011;22266;52.340;4.962;2023-01-06T15:21:39;1.00;;;0.00;;
36221;SDS011;22266;52.340;4.962;2023-01-06T15:24:24;0.00;;;0.00;;
36221;SDS011;22266;52.340;4.962;2023-01-06T15:26:54;0.25;;;0.25;;
36221;SDS011;22266;52.340;4.962;2023-01-06T15:29:27;0.00;;;0.00;;
36221;SDS011;22266;52.340;4.962;2023-01-06T15:31:53;0.00;;;0.00;;
36221;SDS011;22266;52.340;4.962;2023-01-06T15:34:24;0.00;;;0.00;;
36221;SDS011;22266;52.340;4.962;2023-01-06T15:36:57;0.00;;;0.00;;
36221;SDS011;22266;52.340;4.962;2023-01-06T15:39:26;1.00;;;0.00;;
36221;SDS011;22266;52.340;4.962;2023-01-06T15:41:55;1.00;;;0.25;;
36221;SDS011;22266;52.340;4.962;2023-01-06T15:44:27;0.75;;;0.00;;
36221;SDS011;22266;52.340;4.962;2023-01-06T15:47:07;0.00;;;0.00;;
36221;SDS011;22266;52.340;4.962;2023-01-06T15:52:23;0.00;;;0.00;;
36221;SDS011;22266;52.340;4.962;2023-01-06T15:54:55;0.00;;;0.00;;
36221;SDS011;22266;52.340;4.962;2023-01-06T15:57:24;1.25;;;0.00;;
36221;SDS011;22266;52.340;4.962;2023-01-06T15:59:53;0.00;;;0.00;;
36221;SDS011;22266;52.340;4.962;2023-01-06T16:02:23;0.00;;;0.00;;
36221;SDS011;22266;52.340;4.962;2023-01-06T16:04:53;0.00;;;0.00;;
36221;SDS011;22266;52.340;4.962;2023-01-06T16:09:47;0.00;;;0.00;;
36221;SDS011;22266;52.340;4.962;2023-01-06T16:12:15;0.00;;;0.00;;
36221;SDS011;22266;52.340;4.962;2023-01-06T16:14:43;0.00;;;0.00;;
36221;SDS011;22266;52.340;4.962;2023-01-06T16:17:20;0.75;;;0.75;;
36221;SDS011;22266;52.340;4.962;2023-01-06T16:19:54;0.00;;;0.00;;
36221;SDS011;22266;52.340;4.962;2023-01-06T16:25:25;0.00;;;0.00;;
36221;SDS011;22266;52.340;4.962;2023-01-06T16:27:54;0.25;;;0.25;;
36221;SDS011;22266;52.340;4.962;2023-01-06T16:30:24;1.00;;;0.00;;
36221;SDS011;22266;52.340;4.962;2023-01-06T16:32:55;0.00;;;0.00;;
36221;SDS011;22266;52.340;4.962;2023-01-06T16:35:31;1.00;;;1.00;;
36221;SDS011;22266;52.340;4.962;2023-01-06T16:37:59;1.00;;;1.00;;
36221;SDS011;22266;52.340;4.962;2023-01-06T16:40:26;0.75;;;0.75;;
36221;SDS011;22266;52.340;4.962;2023-01-06T16:42:57;1.50;;;1.00;;
36221;SDS011;22266;52.340;4.962;2023-01-06T16:45:33;1.75;;;0.25;;
36221;SDS011;22266;52.340;4.962;2023-01-06T16:48:02;0.25;;;0.25;;
36221;SDS011;22266;52.340;4.962;2023-01-06T16:53:02;0.75;;;0.00;;
36221;SDS011;22266;52.340;4.962;2023-01-06T16:55:38;1.00;;;1.00;;
36221;SDS011;22266;52.340;4.962;2023-01-06T17:00:38;0.00;;;0.00;;
36221;SDS011;22266;52.340;4.962;2023-01-06T17:03:10;1.00;;;1.00;;
36221;SDS011;22266;52.340;4.962;2023-01-06T17:05:38;3.75;;;1.25;;
36221;SDS011;22266;52.340;4.962;2023-01-06T17:08:10;2.00;;;2.00;;
36221;SDS011;22266;52.340;4.962;2023-01-06T17:10:39;1.50;;;1.50;;
36221;SDS011;22266;52.340;4.962;2023-01-06T17:13:09;2.75;;;2.75;;